sensor_id;sensor_type;location;lat;lon;timestamp;P1;durP1;ratioP1;P2;durP2;ratioP2
75316;SDS011;63913;51.492;10.368;2023-12-04T00:02:00;10.47;;;3.93;;
75316;SDS011;63913;51.492;10.368;2023-12-04T00:04:26;11.67;;;4.33;;
75316;SDS011;63913;51.492;10.368;2023-12-04T00:06:51;9.73;;;4.17;;
75316;SDS011;63913;51.492;10.368;2023-12-04T00:09:16;13.17;;;4.57;;
75316;SDS011;63913;51.492;10.368;2023-12-04T00:11:41;12.67;;;5.03;;
75316;SDS011;63913;51.492;10.368;2023-12-04T00:14:07;11.55;;;4.70;;
75316;SDS011;63913;51.492;10.368;2023-12-04T00:16:33;12.98;;;3.83;;
75316;SDS011;63913;51.492;10.368;2023-12-04T00:19:00;13.32;;;4.47;;
75316;SDS011;63913;51.492;10.368;2023-12-04T00:21:26;9.10;;;3.65;;
75316;SDS011;63913;51.492;10.368;2023-12-04T00:23:51;10.18;;;3.75;;
75316;SDS011;63913;51.492;10.368;2023-12-04T00:26:16;10.25;;;4.13;;
75316;SDS011;63913;51.492;10.368;2023-12-04T00:28:42;10.15;;;4.10;;
75316;SDS011;63913;51.492;10.368;2023-12-04T00:31:08;10.43;;;4.13;;
75316;SDS011;63913;51.492;10.368;2023-12-04T00:33:33;11.35;;;3.95;;
75316;SDS011;63913;51.492;10.368;2023-12-04T00:35:59;10.00;;;3.77;;
75316;SDS011;63913;51.492;10.368;2023-12-04T00:38:24;10.25;;;3.75;;
75316;SDS011;63913;51.492;10.368;2023-12-04T00:40:49;7.80;;;3.40;;
75316;SDS011;63913;51.492;10.368;2023-12-04T00:43:15;10.20;;;3.90;;
75316;SDS011;63913;51.492;10.368;2023-12-04T00:45:40;8.73;;;3.60;;
75316;SDS011;63913;51.492;10.368;2023-12-04T00:48:05;8.30;;;3.37;;
75316;SDS011;63913;51.492;10.368;2023-12-04T00:50:31;7.18;;;2.88;;
75316;SDS011;63913;51.492;10.368;2023-12-04T00:52:56;9.45;;;2.97;;
75316;SDS011;63913;51.492;10.368;2023-12-04T00:55:21;9.43;;;3.63;;
75316;SDS011;63913;51.492;10.368;2023-12-04T00:57:47;7.35;;;3.05;;
75316;SDS011;63913;51.492;10.368;2023-12-04T01:00:12;7.63;;;2.83;;
75316;SDS011;63913;51.492;10.368;2023-12-04T01:02:38;8.32;;;3.17;;
75316;SDS011;63913;51.492;10.368;2023-12-04T01:05:03;7.97;;;3.70;;
75316;SDS011;63913;51.492;10.368;2023-12-04T01:07:29;9.90;;;3.10;;
75316;SDS011;63913;51.492;10.368;2023-12-04T01:09:54;8.80;;;3.20;;
75316;SDS011;63913;51.492;10.368;2023-12-04T01:12:20;9.30;;;3.55;;
75316;SDS011;63913;51.492;10.368;2023-12-04T01:14:46;8.82;;;3.30;;
75316;SDS011;63913;51.492;10.368;2023-12-04T01:17:11;7.97;;;3.10;;
75316;SDS011;63913;51.492;10.368;2023-12-04T01:19:36;9.37;;;3.53;;
75316;SDS011;63913;51.492;10.368;2023-12-04T01:22:02;8.77;;;3.40;;
75316;SDS011;63913;51.492;10.368;2023-12-04T01:24:28;8.32;;;3.17;;
75316;SDS011;63913;51.492;10.368;2023-12-04T01:26:53;5.47;;;2.38;;
75316;SDS011;63913;51.492;10.368;2023-12-04T01:29:18;6.38;;;2.97;;
75316;SDS011;63913;51.492;10.368;2023-12-04T01:31:44;7.28;;;2.85;;
75316;SDS011;63913;51.492;10.368;2023-12-04T01:34:09;8.13;;;3.43;;
75316;SDS011;63913;51.492;10.368;2023-12-04T01:36:35;8.70;;;3.40;;
75316;SDS011;63913;51.492;10.368;2023-12-04T01:39:00;9.17;;;3.40;;
75316;SDS011;63913;51.492;10.368;2023-12-04T01:41:25;10.23;;;3.93;;
75316;SDS011;63913;51.492;10.368;2023-12-04T01:43:51;11.27;;;3.20;;
75316;SDS011;63913;51.492;10.368;2023-12-04T01:46:16;9.27;;;3.65;;
75316;SDS011;63913;51.492;10.368;2023-12-04T01:48:44;9.75;;;3.58;;
75316;SDS011;63913;51.492;10.368;2023-12-04T01:51:10;7.43;;;3.55;;
75316;SDS011;63913;51.492;10.368;2023-12-04T01:53:37;9.43;;;3.85;;
75316;SDS011;63913;51.492;10.368;2023-12-04T01:56:04;12.07;;;3.53;;
75316;SDS011;63913;51.492;10.368;2023-12-04T01:58:30;9.10;;;3.03;;
75316;SDS011;63913;51.492;10.368;2023-12-04T02:00:56;11.38;;;4.57;;
75316;SDS011;63913;51.492;10.368;2023-12-04T02:03:22;13.82;;;5.13;;
75316;SDS011;63913;51.492;10.368;2023-12-04T02:05:48;9.95;;;4.35;;
75316;SDS011;63913;51.492;10.368;2023-12-04T02:08:16;11.25;;;4.50;;
75316;SDS011;63913;51.492;10.368;2023-12-04T02:10:41;10.20;;;3.75;;
75316;SDS011;63913;51.492;10.368;2023-12-04T02:13:07;9.30;;;4.20;;
75316;SDS011;63913;51.492;10.368;2023-12-04T02:15:32;9.65;;;3.78;;
75316;SDS011;63913;51.492;10.368;2023-12-04T02:21:10;11.60;;;5.05;;
75316;SDS011;63913;51.492;10.368;2023-12-04T02:23:35;12.70;;;4.75;;
75316;SDS011;63913;51.492;10.368;2023-12-04T02:26:05;12.07;;;4.77;;
75316;SDS011;63913;51.492;10.368;2023-12-04T02:28:35;13.43;;;3.85;;
75316;SDS011;63913;51.492;10.368;2023-12-04T02:31:03;11.95;;;4.63;;
75316;SDS011;63913;51.492;10.368;2023-12-04T02:33:29;13.07;;;4.30;;
75316;SDS011;63913;51.492;10.368;2023-12-04T02:35:56;13.18;;;4.57;;
75316;SDS011;63913;51.492;10.368;2023-12-04T02:38:23;15.60;;;5.57;;
75316;SDS011;63913;51.492;10.368;2023-12-04T02:40:49;13.82;;;5.50;;
75316;SDS011;63913;51.492;10.368;2023-12-04T02:43:15;12.20;;;4.88;;
75316;SDS011;63913;51.492;10.368;2023-12-04T02:45:40;16.48;;;5.10;;
75316;SDS011;63913;51.492;10.368;2023-12-04T02:48:06;14.50;;;5.37;;
75316;SDS011;63913;51.492;10.368;2023-12-04T02:50:31;10.60;;;3.85;;
75316;SDS011;63913;51.492;10.368;2023-12-04T02:52:57;11.40;;;4.53;;
75316;SDS011;63913;51.492;10.368;2023-12-04T02:55:22;14.37;;;4.73;;
75316;SDS011;63913;51.492;10.368;2023-12-04T02:57:47;9.38;;;3.88;;
75316;SDS011;63913;51.492;10.368;2023-12-04T03:00:13;12.63;;;4.67;;
75316;SDS011;63913;51.492;10.368;2023-12-04T03:02:38;12.25;;;4.35;;
75316;SDS011;63913;51.492;10.368;2023-12-04T03:05:04;13.63;;;4.00;;
75316;SDS011;63913;51.492;10.368;2023-12-04T03:07:29;12.05;;;3.85;;
75316;SDS011;63913;51.492;10.368;2023-12-04T03:09:54;7.20;;;3.23;;
75316;SDS011;63913;51.492;10.368;2023-12-04T03:12:20;12.33;;;3.67;;
75316;SDS011;63913;51.492;10.368;2023-12-04T03:14:45;7.93;;;2.88;;
75316;SDS011;63913;51.492;10.368;2023-12-04T03:17:10;9.10;;;3.55;;
75316;SDS011;63913;51.492;10.368;2023-12-04T03:19:36;11.30;;;4.07;;
75316;SDS011;63913;51.492;10.368;2023-12-04T03:22:01;8.57;;;3.50;;
75316;SDS011;63913;51.492;10.368;2023-12-04T03:24:27;6.18;;;2.92;;
75316;SDS011;63913;51.492;10.368;2023-12-04T03:26:52;12.17;;;4.30;;
75316;SDS011;63913;51.492;10.368;2023-12-04T03:29:17;9.70;;;3.17;;
75316;SDS011;63913;51.492;10.368;2023-12-04T03:31:43;11.48;;;4.28;;
75316;SDS011;63913;51.492;10.368;2023-12-04T03:34:08;10.05;;;4.05;;
75316;SDS011;63913;51.492;10.368;2023-12-04T03:36:34;9.07;;;3.22;;
75316;SDS011;63913;51.492;10.368;2023-12-04T03:38:59;6.63;;;2.95;;
75316;SDS011;63913;51.492;10.368;2023-12-04T03:41:25;7.75;;;3.00;;
75316;SDS011;63913;51.492;10.368;2023-12-04T03:43:50;8.37;;;2.87;;
75316;SDS011;63913;51.492;10.368;2023-12-04T03:46:15;9.87;;;3.23;;
75316;SDS011;63913;51.492;10.368;2023-12-04T03:48:41;10.53;;;3.63;;
75316;SDS011;63913;51.492;10.368;2023-12-04T03:51:06;9.80;;;3.25;;
75316;SDS011;63913;51.492;10.368;2023-12-04T03:53:32;10.57;;;3.75;;
75316;SDS011;63913;51.492;10.368;2023-12-04T03:56:00;7.32;;;3.00;;
75316;SDS011;63913;51.492;10.368;2023-12-04T03:58:25;9.27;;;2.85;;
75316;SDS011;63913;51.492;10.368;2023-12-04T04:00:50;9.23;;;2.95;;
75316;SDS011;63913;51.492;10.368;2023-12-04T04:03:16;6.90;;;2.93;;
75316;SDS011;63913;51.492;10.368;2023-12-04T04:05:41;8.93;;;3.33;;
75316;SDS011;63913;51.492;10.368;2023-12-04T04:08:07;7.47;;;2.95;;
75316;SDS011;63913;51.492;10.368;2023-12-04T04:10:33;7.25;;;3.05;;
75316;SDS011;63913;51.492;10.368;2023-12-04T04:12:58;10.77;;;3.63;;
75316;SDS011;63913;51.492;10.368;2023-12-04T04:15:24;12.00;;;3.67;;
75316;SDS011;63913;51.492;10.368;2023-12-04T04:17:50;7.75;;;3.35;;
75316;SDS011;63913;51.492;10.368;2023-12-04T04:20:16;7.90;;;2.95;;
75316;SDS011;63913;51.492;10.368;2023-12-04T04:22:41;7.90;;;3.28;;
75316;SDS011;63913;51.492;10.368;2023-12-04T04:25:07;8.05;;;2.60;;
75316;SDS011;63913;51.492;10.368;2023-12-04T04:27:33;7.88;;;3.05;;
75316;SDS011;63913;51.492;10.368;2023-12-04T04:29:58;7.50;;;3.08;;
75316;SDS011;63913;51.492;10.368;2023-12-04T04:32:24;9.43;;;3.17;;
75316;SDS011;63913;51.492;10.368;2023-12-04T04:34:49;9.05;;;3.25;;
75316;SDS011;63913;51.492;10.368;2023-12-04T04:37:15;9.95;;;3.03;;
75316;SDS011;63913;51.492;10.368;2023-12-04T04:39:40;8.93;;;3.17;;
75316;SDS011;63913;51.492;10.368;2023-12-04T04:42:06;6.72;;;3.33;;
75316;SDS011;63913;51.492;10.368;2023-12-04T04:44:31;6.20;;;2.95;;
75316;SDS011;63913;51.492;10.368;2023-12-04T04:46:56;8.87;;;3.43;;
75316;SDS011;63913;51.492;10.368;2023-12-04T04:49:22;8.60;;;3.23;;
75316;SDS011;63913;51.492;10.368;2023-12-04T04:51:47;8.50;;;3.83;;
75316;SDS011;63913;51.492;10.368;2023-12-04T04:54:12;8.33;;;3.17;;
75316;SDS011;63913;51.492;10.368;2023-12-04T04:56:38;6.68;;;3.38;;
75316;SDS011;63913;51.492;10.368;2023-12-04T04:59:03;8.17;;;3.00;;
75316;SDS011;63913;51.492;10.368;2023-12-04T05:01:28;9.88;;;3.88;;
75316;SDS011;63913;51.492;10.368;2023-12-04T05:03:54;8.70;;;3.53;;
75316;SDS011;63913;51.492;10.368;2023-12-04T05:06:19;12.00;;;3.97;;
75316;SDS011;63913;51.492;10.368;2023-12-04T05:08:45;11.15;;;4.20;;
75316;SDS011;63913;51.492;10.368;2023-12-04T05:11:10;10.45;;;4.32;;
75316;SDS011;63913;51.492;10.368;2023-12-04T05:13:35;13.43;;;5.03;;
75316;SDS011;63913;51.492;10.368;2023-12-04T05:16:01;12.33;;;4.37;;
75316;SDS011;63913;51.492;10.368;2023-12-04T05:18:26;9.65;;;4.00;;
75316;SDS011;63913;51.492;10.368;2023-12-04T05:20:51;8.63;;;4.17;;
75316;SDS011;63913;51.492;10.368;2023-12-04T05:23:16;11.27;;;3.97;;
75316;SDS011;63913;51.492;10.368;2023-12-04T05:25:42;9.77;;;4.53;;
75316;SDS011;63913;51.492;10.368;2023-12-04T05:28:07;10.32;;;3.90;;
75316;SDS011;63913;51.492;10.368;2023-12-04T05:30:34;9.80;;;4.30;;
75316;SDS011;63913;51.492;10.368;2023-12-04T05:32:59;9.55;;;3.55;;
75316;SDS011;63913;51.492;10.368;2023-12-04T05:35:24;11.50;;;3.90;;
75316;SDS011;63913;51.492;10.368;2023-12-04T05:37:50;10.27;;;3.88;;
75316;SDS011;63913;51.492;10.368;2023-12-04T05:40:15;9.35;;;3.40;;
75316;SDS011;63913;51.492;10.368;2023-12-04T05:42:40;7.80;;;3.67;;
75316;SDS011;63913;51.492;10.368;2023-12-04T05:45:06;11.68;;;4.40;;
75316;SDS011;63913;51.492;10.368;2023-12-04T05:47:32;8.23;;;3.70;;
75316;SDS011;63913;51.492;10.368;2023-12-04T05:49:58;10.65;;;4.10;;
75316;SDS011;63913;51.492;10.368;2023-12-04T05:52:23;9.93;;;4.10;;
75316;SDS011;63913;51.492;10.368;2023-12-04T05:54:49;10.77;;;3.90;;
75316;SDS011;63913;51.492;10.368;2023-12-04T05:57:14;8.30;;;3.83;;
75316;SDS011;63913;51.492;10.368;2023-12-04T05:59:41;9.27;;;3.58;;
75316;SDS011;63913;51.492;10.368;2023-12-04T06:02:06;10.13;;;4.40;;
75316;SDS011;63913;51.492;10.368;2023-12-04T06:04:32;10.48;;;3.65;;
75316;SDS011;63913;51.492;10.368;2023-12-04T06:06:57;12.57;;;4.25;;
75316;SDS011;63913;51.492;10.368;2023-12-04T06:09:22;10.83;;;4.20;;
75316;SDS011;63913;51.492;10.368;2023-12-04T06:11:48;9.27;;;4.03;;
75316;SDS011;63913;51.492;10.368;2023-12-04T06:14:13;13.37;;;5.00;;
75316;SDS011;63913;51.492;10.368;2023-12-04T06:16:38;11.57;;;4.40;;
75316;SDS011;63913;51.492;10.368;2023-12-04T06:19:04;8.53;;;3.70;;
75316;SDS011;63913;51.492;10.368;2023-12-04T06:21:29;15.02;;;5.47;;
75316;SDS011;63913;51.492;10.368;2023-12-04T06:23:55;13.38;;;4.47;;
75316;SDS011;63913;51.492;10.368;2023-12-04T06:26:21;13.93;;;5.30;;
75316;SDS011;63913;51.492;10.368;2023-12-04T06:28:47;11.95;;;4.30;;
75316;SDS011;63913;51.492;10.368;2023-12-04T06:31:12;13.10;;;4.55;;
75316;SDS011;63913;51.492;10.368;2023-12-04T06:33:38;9.98;;;4.15;;
75316;SDS011;63913;51.492;10.368;2023-12-04T06:36:04;10.07;;;4.18;;
75316;SDS011;63913;51.492;10.368;2023-12-04T06:38:32;13.05;;;4.50;;
75316;SDS011;63913;51.492;10.368;2023-12-04T06:40:59;12.50;;;4.28;;
75316;SDS011;63913;51.492;10.368;2023-12-04T06:43:25;9.75;;;3.90;;
75316;SDS011;63913;51.492;10.368;2023-12-04T06:45:51;13.77;;;5.03;;
75316;SDS011;63913;51.492;10.368;2023-12-04T06:48:16;11.30;;;4.35;;
75316;SDS011;63913;51.492;10.368;2023-12-04T06:50:42;10.00;;;3.67;;
75316;SDS011;63913;51.492;10.368;2023-12-04T06:53:08;10.35;;;4.10;;
75316;SDS011;63913;51.492;10.368;2023-12-04T06:55:33;7.60;;;3.40;;
75316;SDS011;63913;51.492;10.368;2023-12-04T06:57:59;11.20;;;3.80;;
75316;SDS011;63913;51.492;10.368;2023-12-04T07:00:24;6.38;;;3.58;;
75316;SDS011;63913;51.492;10.368;2023-12-04T07:02:51;14.07;;;5.60;;
75316;SDS011;63913;51.492;10.368;2023-12-04T07:05:16;12.23;;;4.47;;
75316;SDS011;63913;51.492;10.368;2023-12-04T07:07:43;10.98;;;5.10;;
75316;SDS011;63913;51.492;10.368;2023-12-04T07:10:09;10.43;;;3.80;;
75316;SDS011;63913;51.492;10.368;2023-12-04T07:12:34;12.73;;;4.47;;
75316;SDS011;63913;51.492;10.368;2023-12-04T07:14:59;9.83;;;4.37;;
75316;SDS011;63913;51.492;10.368;2023-12-04T07:17:25;12.07;;;5.00;;
75316;SDS011;63913;51.492;10.368;2023-12-04T07:19:50;12.13;;;4.60;;
75316;SDS011;63913;51.492;10.368;2023-12-04T07:22:15;9.37;;;4.17;;
75316;SDS011;63913;51.492;10.368;2023-12-04T07:24:41;11.45;;;4.47;;
75316;SDS011;63913;51.492;10.368;2023-12-04T07:27:07;13.40;;;4.17;;
75316;SDS011;63913;51.492;10.368;2023-12-04T07:29:35;10.23;;;4.30;;
75316;SDS011;63913;51.492;10.368;2023-12-04T07:32:02;10.20;;;4.25;;
75316;SDS011;63913;51.492;10.368;2023-12-04T07:34:28;10.68;;;3.95;;
75316;SDS011;63913;51.492;10.368;2023-12-04T07:36:53;9.68;;;3.80;;
75316;SDS011;63913;51.492;10.368;2023-12-04T07:39:19;14.03;;;4.90;;
75316;SDS011;63913;51.492;10.368;2023-12-04T07:41:45;12.27;;;5.10;;
75316;SDS011;63913;51.492;10.368;2023-12-04T07:44:11;11.50;;;3.75;;
75316;SDS011;63913;51.492;10.368;2023-12-04T07:46:36;10.57;;;4.10;;
75316;SDS011;63913;51.492;10.368;2023-12-04T07:49:02;11.35;;;3.92;;
75316;SDS011;63913;51.492;10.368;2023-12-04T07:51:29;7.85;;;3.88;;
75316;SDS011;63913;51.492;10.368;2023-12-04T07:53:54;12.88;;;4.22;;
75316;SDS011;63913;51.492;10.368;2023-12-04T07:56:19;10.27;;;4.63;;
75316;SDS011;63913;51.492;10.368;2023-12-04T07:58:45;14.90;;;5.40;;
75316;SDS011;63913;51.492;10.368;2023-12-04T08:01:10;18.13;;;5.43;;
75316;SDS011;63913;51.492;10.368;2023-12-04T08:03:35;14.13;;;5.07;;
75316;SDS011;63913;51.492;10.368;2023-12-04T08:06:01;13.75;;;4.60;;
75316;SDS011;63913;51.492;10.368;2023-12-04T08:08:28;14.45;;;4.88;;
75316;SDS011;63913;51.492;10.368;2023-12-04T08:10:53;13.50;;;4.55;;
75316;SDS011;63913;51.492;10.368;2023-12-04T08:13:18;11.80;;;4.93;;
75316;SDS011;63913;51.492;10.368;2023-12-04T08:15:44;11.93;;;4.47;;
75316;SDS011;63913;51.492;10.368;2023-12-04T08:18:09;12.80;;;4.13;;
75316;SDS011;63913;51.492;10.368;2023-12-04T08:20:35;10.90;;;4.22;;
75316;SDS011;63913;51.492;10.368;2023-12-04T08:23:00;9.38;;;3.80;;
75316;SDS011;63913;51.492;10.368;2023-12-04T08:25:26;11.50;;;4.73;;
75316;SDS011;63913;51.492;10.368;2023-12-04T08:27:52;13.13;;;4.72;;
75316;SDS011;63913;51.492;10.368;2023-12-04T08:30:17;14.55;;;3.97;;
75316;SDS011;63913;51.492;10.368;2023-12-04T08:32:43;13.25;;;4.18;;
75316;SDS011;63913;51.492;10.368;2023-12-04T08:35:09;13.85;;;4.55;;
75316;SDS011;63913;51.492;10.368;2023-12-04T08:37:34;12.93;;;5.65;;
75316;SDS011;63913;51.492;10.368;2023-12-04T08:40:00;12.55;;;4.63;;
75316;SDS011;63913;51.492;10.368;2023-12-04T08:42:25;14.13;;;4.72;;
75316;SDS011;63913;51.492;10.368;2023-12-04T08:44:51;12.02;;;4.80;;
75316;SDS011;63913;51.492;10.368;2023-12-04T08:47:16;10.65;;;4.43;;
75316;SDS011;63913;51.492;10.368;2023-12-04T08:49:42;11.10;;;4.23;;
75316;SDS011;63913;51.492;10.368;2023-12-04T08:52:08;10.82;;;4.20;;
75316;SDS011;63913;51.492;10.368;2023-12-04T08:54:34;13.20;;;4.55;;
75316;SDS011;63913;51.492;10.368;2023-12-04T08:56:59;11.93;;;4.20;;
75316;SDS011;63913;51.492;10.368;2023-12-04T08:59:25;12.55;;;5.13;;
75316;SDS011;63913;51.492;10.368;2023-12-04T09:01:50;8.48;;;3.55;;
75316;SDS011;63913;51.492;10.368;2023-12-04T09:04:16;10.52;;;4.20;;
75316;SDS011;63913;51.492;10.368;2023-12-04T09:06:41;10.05;;;4.32;;
75316;SDS011;63913;51.492;10.368;2023-12-04T09:09:07;12.23;;;4.05;;
75316;SDS011;63913;51.492;10.368;2023-12-04T09:11:32;11.25;;;4.40;;
75316;SDS011;63913;51.492;10.368;2023-12-04T09:13:58;11.52;;;4.40;;
75316;SDS011;63913;51.492;10.368;2023-12-04T09:16:24;13.02;;;4.45;;
75316;SDS011;63913;51.492;10.368;2023-12-04T09:18:49;11.80;;;4.30;;
75316;SDS011;63913;51.492;10.368;2023-12-04T09:21:14;10.75;;;4.05;;
75316;SDS011;63913;51.492;10.368;2023-12-04T09:23:40;11.93;;;4.68;;
75316;SDS011;63913;51.492;10.368;2023-12-04T09:26:05;9.00;;;4.07;;
75316;SDS011;63913;51.492;10.368;2023-12-04T09:28:31;13.68;;;4.40;;
75316;SDS011;63913;51.492;10.368;2023-12-04T09:30:56;10.40;;;3.97;;
75316;SDS011;63913;51.492;10.368;2023-12-04T09:33:22;11.80;;;4.28;;
75316;SDS011;63913;51.492;10.368;2023-12-04T09:35:47;9.85;;;4.18;;
75316;SDS011;63913;51.492;10.368;2023-12-04T09:38:12;13.40;;;4.57;;
75316;SDS011;63913;51.492;10.368;2023-12-04T09:40:40;14.65;;;4.78;;
75316;SDS011;63913;51.492;10.368;2023-12-04T09:43:06;14.90;;;4.93;;
75316;SDS011;63913;51.492;10.368;2023-12-04T09:45:32;12.57;;;4.57;;
75316;SDS011;63913;51.492;10.368;2023-12-04T09:47:58;10.80;;;4.43;;
75316;SDS011;63913;51.492;10.368;2023-12-04T09:50:24;12.63;;;4.95;;
75316;SDS011;63913;51.492;10.368;2023-12-04T09:52:50;11.90;;;4.80;;
75316;SDS011;63913;51.492;10.368;2023-12-04T09:55:16;13.15;;;4.93;;
75316;SDS011;63913;51.492;10.368;2023-12-04T09:57:43;11.93;;;4.43;;
75316;SDS011;63913;51.492;10.368;2023-12-04T10:00:11;11.68;;;4.78;;
75316;SDS011;63913;51.492;10.368;2023-12-04T10:02:38;12.10;;;4.35;;
75316;SDS011;63913;51.492;10.368;2023-12-04T10:05:04;11.07;;;4.47;;
75316;SDS011;63913;51.492;10.368;2023-12-04T10:07:31;11.45;;;4.22;;
75316;SDS011;63913;51.492;10.368;2023-12-04T10:09:56;11.90;;;4.75;;
75316;SDS011;63913;51.492;10.368;2023-12-04T10:12:23;13.38;;;4.38;;
75316;SDS011;63913;51.492;10.368;2023-12-04T10:15:02;21.80;;;7.00;;
75316;SDS011;63913;51.492;10.368;2023-12-04T10:17:35;13.40;;;5.25;;
75316;SDS011;63913;51.492;10.368;2023-12-04T10:20:05;15.38;;;6.30;;
75316;SDS011;63913;51.492;10.368;2023-12-04T10:22:51;11.35;;;4.43;;
75316;SDS011;63913;51.492;10.368;2023-12-04T10:25:18;9.15;;;4.65;;
75316;SDS011;63913;51.492;10.368;2023-12-04T10:27:44;13.88;;;5.18;;
75316;SDS011;63913;51.492;10.368;2023-12-04T10:30:21;11.18;;;5.10;;
75316;SDS011;63913;51.492;10.368;2023-12-04T10:32:55;13.48;;;5.00;;
75316;SDS011;63913;51.492;10.368;2023-12-04T10:35:30;11.60;;;4.60;;
75316;SDS011;63913;51.492;10.368;2023-12-04T10:37:56;12.60;;;5.07;;
75316;SDS011;63913;51.492;10.368;2023-12-04T10:40:23;10.43;;;4.30;;
75316;SDS011;63913;51.492;10.368;2023-12-04T10:42:49;9.73;;;3.95;;
75316;SDS011;63913;51.492;10.368;2023-12-04T10:45:14;13.07;;;4.78;;
75316;SDS011;63913;51.492;10.368;2023-12-04T10:47:42;12.85;;;4.53;;
75316;SDS011;63913;51.492;10.368;2023-12-04T10:50:09;11.25;;;4.72;;
75316;SDS011;63913;51.492;10.368;2023-12-04T10:52:34;12.52;;;4.68;;
75316;SDS011;63913;51.492;10.368;2023-12-04T10:55:01;10.63;;;3.83;;
75316;SDS011;63913;51.492;10.368;2023-12-04T10:57:27;10.38;;;4.25;;
75316;SDS011;63913;51.492;10.368;2023-12-04T11:00:01;10.27;;;4.78;;
75316;SDS011;63913;51.492;10.368;2023-12-04T11:02:34;12.68;;;4.72;;
75316;SDS011;63913;51.492;10.368;2023-12-04T11:05:07;12.32;;;3.90;;
75316;SDS011;63913;51.492;10.368;2023-12-04T11:07:40;7.90;;;3.60;;
75316;SDS011;63913;51.492;10.368;2023-12-04T11:10:09;7.10;;;3.35;;
75316;SDS011;63913;51.492;10.368;2023-12-04T11:12:36;12.05;;;4.10;;
75316;SDS011;63913;51.492;10.368;2023-12-04T11:15:08;7.60;;;3.55;;
75316;SDS011;63913;51.492;10.368;2023-12-04T11:20:09;8.05;;;2.90;;
75316;SDS011;63913;51.492;10.368;2023-12-04T11:22:39;12.73;;;3.95;;
75316;SDS011;63913;51.492;10.368;2023-12-04T11:25:06;11.52;;;3.85;;
75316;SDS011;63913;51.492;10.368;2023-12-04T11:27:34;10.60;;;4.05;;
75316;SDS011;63913;51.492;10.368;2023-12-04T11:30:03;7.65;;;3.67;;
75316;SDS011;63913;51.492;10.368;2023-12-04T11:32:43;8.98;;;3.97;;
75316;SDS011;63913;51.492;10.368;2023-12-04T11:35:13;11.60;;;4.00;;
75316;SDS011;63913;51.492;10.368;2023-12-04T11:37:41;10.15;;;4.15;;
75316;SDS011;63913;51.492;10.368;2023-12-04T11:40:10;10.10;;;3.47;;
75316;SDS011;63913;51.492;10.368;2023-12-04T11:42:38;10.27;;;3.92;;
75316;SDS011;63913;51.492;10.368;2023-12-04T11:45:04;10.05;;;4.32;;
75316;SDS011;63913;51.492;10.368;2023-12-04T11:47:30;7.57;;;3.75;;
75316;SDS011;63913;51.492;10.368;2023-12-04T11:50:13;7.30;;;3.05;;
75316;SDS011;63913;51.492;10.368;2023-12-04T11:52:38;6.77;;;3.20;;
75316;SDS011;63913;51.492;10.368;2023-12-04T11:55:04;8.60;;;3.67;;
75316;SDS011;63913;51.492;10.368;2023-12-04T11:57:37;11.63;;;4.25;;
75316;SDS011;63913;51.492;10.368;2023-12-04T12:00:10;8.20;;;3.60;;
75316;SDS011;63913;51.492;10.368;2023-12-04T12:02:40;7.60;;;3.70;;
75316;SDS011;63913;51.492;10.368;2023-12-04T12:05:11;10.32;;;3.60;;
75316;SDS011;63913;51.492;10.368;2023-12-04T12:07:37;5.75;;;2.92;;
75316;SDS011;63913;51.492;10.368;2023-12-04T12:10:02;8.98;;;3.80;;
75316;SDS011;63913;51.492;10.368;2023-12-04T12:12:28;9.38;;;3.83;;
75316;SDS011;63913;51.492;10.368;2023-12-04T12:14:56;6.80;;;3.22;;
75316;SDS011;63913;51.492;10.368;2023-12-04T12:17:22;10.05;;;3.42;;
75316;SDS011;63913;51.492;10.368;2023-12-04T12:19:47;8.98;;;3.65;;
75316;SDS011;63913;51.492;10.368;2023-12-04T12:22:12;9.13;;;3.60;;
75316;SDS011;63913;51.492;10.368;2023-12-04T12:24:38;9.93;;;4.15;;
75316;SDS011;63913;51.492;10.368;2023-12-04T12:27:04;7.30;;;3.10;;
75316;SDS011;63913;51.492;10.368;2023-12-04T12:29:30;8.68;;;3.60;;
75316;SDS011;63913;51.492;10.368;2023-12-04T12:31:56;11.20;;;4.00;;
75316;SDS011;63913;51.492;10.368;2023-12-04T12:34:21;9.35;;;3.47;;
75316;SDS011;63913;51.492;10.368;2023-12-04T12:36:47;10.25;;;3.75;;
75316;SDS011;63913;51.492;10.368;2023-12-04T12:39:12;7.18;;;3.33;;
75316;SDS011;63913;51.492;10.368;2023-12-04T12:41:46;7.80;;;3.22;;
75316;SDS011;63913;51.492;10.368;2023-12-04T12:44:14;11.35;;;3.78;;
75316;SDS011;63913;51.492;10.368;2023-12-04T12:46:40;6.97;;;3.27;;
75316;SDS011;63913;51.492;10.368;2023-12-04T12:49:05;7.70;;;3.45;;
75316;SDS011;63913;51.492;10.368;2023-12-04T12:51:31;9.83;;;3.37;;
75316;SDS011;63913;51.492;10.368;2023-12-04T12:53:57;7.80;;;2.97;;
75316;SDS011;63913;51.492;10.368;2023-12-04T12:56:23;8.43;;;3.20;;
75316;SDS011;63913;51.492;10.368;2023-12-04T12:58:49;8.75;;;3.20;;
75316;SDS011;63913;51.492;10.368;2023-12-04T13:01:15;10.35;;;3.13;;
75316;SDS011;63913;51.492;10.368;2023-12-04T13:03:47;5.40;;;2.10;;
75316;SDS011;63913;51.492;10.368;2023-12-04T13:06:12;8.07;;;3.20;;
75316;SDS011;63913;51.492;10.368;2023-12-04T13:08:38;11.93;;;3.53;;
75316;SDS011;63913;51.492;10.368;2023-12-04T13:11:04;7.90;;;2.97;;
75316;SDS011;63913;51.492;10.368;2023-12-04T13:13:31;5.97;;;2.88;;
75316;SDS011;63913;51.492;10.368;2023-12-04T13:15:57;7.00;;;2.92;;
75316;SDS011;63913;51.492;10.368;2023-12-04T13:18:23;9.00;;;3.25;;
75316;SDS011;63913;51.492;10.368;2023-12-04T13:20:48;7.72;;;2.65;;
75316;SDS011;63913;51.492;10.368;2023-12-04T13:23:14;6.40;;;2.58;;
75316;SDS011;63913;51.492;10.368;2023-12-04T13:25:39;7.75;;;2.92;;
75316;SDS011;63913;51.492;10.368;2023-12-04T13:28:04;12.10;;;3.57;;
75316;SDS011;63913;51.492;10.368;2023-12-04T13:30:30;10.93;;;3.60;;
75316;SDS011;63913;51.492;10.368;2023-12-04T13:32:58;7.35;;;3.00;;
75316;SDS011;63913;51.492;10.368;2023-12-04T13:35:23;6.13;;;2.95;;
75316;SDS011;63913;51.492;10.368;2023-12-04T13:37:49;4.10;;;2.40;;
75316;SDS011;63913;51.492;10.368;2023-12-04T13:40:20;7.50;;;3.10;;
75316;SDS011;63913;51.492;10.368;2023-12-04T13:42:46;5.65;;;2.70;;
75316;SDS011;63913;51.492;10.368;2023-12-04T13:45:30;6.72;;;2.60;;
75316;SDS011;63913;51.492;10.368;2023-12-04T13:47:56;9.32;;;3.15;;
75316;SDS011;63913;51.492;10.368;2023-12-04T13:50:22;6.75;;;3.20;;
75316;SDS011;63913;51.492;10.368;2023-12-04T13:52:47;7.13;;;3.42;;
75316;SDS011;63913;51.492;10.368;2023-12-04T13:55:20;6.07;;;2.90;;
75316;SDS011;63913;51.492;10.368;2023-12-04T13:57:53;7.85;;;3.25;;
75316;SDS011;63913;51.492;10.368;2023-12-04T14:00:24;9.35;;;3.53;;
75316;SDS011;63913;51.492;10.368;2023-12-04T14:02:50;7.13;;;3.05;;
75316;SDS011;63913;51.492;10.368;2023-12-04T14:05:19;8.70;;;3.70;;
75316;SDS011;63913;51.492;10.368;2023-12-04T14:07:46;10.98;;;4.18;;
75316;SDS011;63913;51.492;10.368;2023-12-04T14:10:12;9.02;;;2.90;;
75316;SDS011;63913;51.492;10.368;2023-12-04T14:12:40;6.35;;;2.75;;
75316;SDS011;63913;51.492;10.368;2023-12-04T14:15:05;7.43;;;2.95;;
75316;SDS011;63913;51.492;10.368;2023-12-04T14:17:31;5.65;;;2.97;;
75316;SDS011;63913;51.492;10.368;2023-12-04T14:19:56;10.40;;;4.00;;
75316;SDS011;63913;51.492;10.368;2023-12-04T14:22:22;10.00;;;3.90;;
75316;SDS011;63913;51.492;10.368;2023-12-04T14:24:47;9.35;;;3.25;;
75316;SDS011;63913;51.492;10.368;2023-12-04T14:27:12;7.57;;;3.07;;
75316;SDS011;63913;51.492;10.368;2023-12-04T14:29:38;8.20;;;2.92;;